• Join FlightAware (Why Join?)
  • Login
  • US Flag 
09:47AM EDT


 

Airport Tracker/Info


-or-


 

Live Flight TrackerFlight Track Log ✈ AAL963 ✈ 03-Jun-2013 ✈ KDFW - SBGR / GRU

Flight Track Log - Related Links

Times and Time Zones

All times are in EDT time to prevent confusion due to time zone crossing. See the AAL963 flight status page for this flight to view local times or setup timezone preferences in your user account.

Time Position Orientation Groundspeed Altitude Reporting Facility
EDT Latitude Longitude Course Direction KTS MPH feet Rate Location/Type
09:18PM 32.8580 -97.0280 166° South 185 213 2,000  Level FlightAware
09:18PM 32.8360 -97.0200 163° South 206 237 2,400 720 Climbing FlightAware
09:19PM 32.8110 -97.0110 163° South 232 267 2,700 1,260 Climbing FlightAware
09:19PM 32.7750 -97.0000 166° South 246 283 3,700 1,920 Climbing FlightAware
09:20PM 32.7460 -96.9910 165° South 253 291 4,500 1,800 Climbing FlightAware
09:20PM 32.7160 -96.9700 150° Southeast 264 304 5,400 1,440 Climbing FlightAware
09:21PM 32.7060 -96.9420 113° Southeast 285 328 5,700 1,800 Climbing FlightAware
09:21PM 32.7060 -96.9120 90° East 280 322 6,600 2,340 Climbing FlightAware
09:21PM 32.7140 -96.8650 79° East 284 327 7,700 1,980 Climbing FlightAware
09:22PM 32.7190 -96.8190 83° East 290 334 8,600 1,560 Climbing FlightAware
09:22PM 32.7230 -96.7730 84° East 304 350 9,200 1,500 Climbing FlightAware
09:23PM 32.7260 -96.7330 85° East 306 352 9,900 1,320 Climbing FlightAware
09:23PM 32.7330 -96.6520 84° East 332 382 10,800 1,140 Climbing FlightAware
09:24PM 32.7400 -96.5780 84° East 354 407 11,600 900 Climbing FlightAware
09:25PM 32.7470 -96.4980 84° East 388 447 12,000 900 Climbing FlightAware
09:26PM 32.7550 -96.3990 84° East 410 472 12,900 1,380 Climbing FlightAware
09:27PM 32.7520 -96.2690 92° East 425 489 14,400 1,740 Climbing FlightAware
09:27PM 32.7400 -96.1910 100° East 427 491 15,600 1,800 Climbing FlightAware
09:28PM 32.7210 -96.0740 101° East 438 504 17,000 1,620 Climbing FlightAware
09:29PM 32.7050 -95.9780 101° East 446 513 18,100 1,500 Climbing FlightAware
09:29PM 32.6910 -95.8890 101° East 452 520 19,100 840 Climbing FlightAware
09:30PM 32.6710 -95.7590 100° East 457 526 19,500 1,380 Climbing FlightAware
09:31PM 32.6590 -95.6410 97° East 476 548 21,300 1,260 Climbing FlightAware
09:32PM 32.6590 -95.5320 90° East 476 548 21,300  Level FlightAware
09:32PM 32.6590 -95.4520 90° East 476 548 21,300  Level FlightAware
09:33PM 32.6590 -95.3450 90° East 476 548 21,300 2,400 Level FlightAware
09:34PM 32.6880 -95.1764 78° East 506 582 24,800 2,880 Climbing FlightAware ADS-B
09:35PM 32.6791 -95.0294 94° East 506 582 25,800 1,080 Climbing FlightAware ADS-B
09:35PM 32.6752 -94.9707 94° East 512 589 26,200 960 Climbing FlightAware ADS-B
09:36PM 32.6487 -94.7695 99° East 518 596 27,300 840 Climbing FlightAware ADS-B
09:36PM 32.6433 -94.7427 103° East 523 602 27,400 720 Climbing FlightAware ADS-B
09:37PM 32.6211 -94.6290 103° East 532 612 27,900 840 Climbing FlightAware ADS-B
09:38PM 32.6008 -94.5241 103° East 532 612 28,500 900 Climbing FlightAware ADS-B
09:38PM 32.5876 -94.4791 109° East 534 615 28,700 960 Climbing FlightAware ADS-B
09:38PM 32.5660 -94.4262 116° Southeast 531 611 29,100 1,200 Climbing FlightAware ADS-B
09:38PM 32.5417 -94.3800 122° Southeast 528 608 29,500 960 Climbing FlightAware ADS-B
09:39PM 32.4940 -94.2993 125° Southeast 529 609 30,000 1,200 Climbing FlightAware ADS-B
09:40PM 32.4442 -94.2147 125° Southeast 525 604 30,900 1,260 Climbing FlightAware ADS-B
09:40PM 32.3956 -94.1321 125° Southeast 519 597 31,500 960 Climbing FlightAware ADS-B
09:41PM 32.3520 -94.0578 125° Southeast 517 595 32,000 960 Climbing FlightAware ADS-B
09:41PM 32.3109 -93.9878 125° Southeast 517 595 32,500 660 Climbing FlightAware ADS-B
09:42PM 32.2691 -93.9169 125° Southeast 521 600 32,700 540 Climbing FlightAware ADS-B
09:42PM 32.2273 -93.8460 125° Southeast 520 598 33,100 780 Climbing FlightAware ADS-B
09:43PM 32.1853 -93.7751 125° Southeast 517 595 33,500 780 Climbing FlightAware ADS-B
09:43PM 32.1438 -93.7050 125° Southeast 516 594 33,900 660 Climbing FlightAware ADS-B
09:44PM 32.1016 -93.6343 125° Southeast 514 592 34,200 180 Climbing FlightAware ADS-B
09:49PM 31.6887 -92.9477 125° Southeast 511 588 35,000 120 Climbing FlightAware ADS-B
09:49PM 31.6399 -92.8670 125° Southeast 513 590 35,000  Level FlightAware ADS-B
09:50PM 31.5941 -92.7909 125° Southeast 513 590 35,000  Level FlightAware ADS-B
09:51PM 31.5319 -92.6879 125° Southeast 513 590 35,000  Level FlightAware ADS-B
09:54PM 31.2945 -92.2975 125° Southeast 516 594 35,000  Level FlightAware ADS-B
09:55PM 31.2191 -92.1744 126° Southeast 516 594 35,000  Level FlightAware ADS-B
09:56PM 31.1342 -92.0362 126° Southeast 515 593 35,000  Level FlightAware ADS-B
09:56PM 31.1219 -92.0150 126° Southeast 513 590 35,000  Level Houston Center
09:57PM 31.0383 -91.8800 126° Southeast 512 589 35,000  Level Houston Center
09:58PM 30.9553 -91.7447 126° Southeast 513 590 35,000  Level Houston Center
09:59PM 30.8547 -91.5822 126° Southeast 516 594 35,000  Level Houston Center
10:00PM 30.7717 -91.4469 126° Southeast 515 593 35,000  Level Houston Center
10:05PM 30.3330 -90.7550 126° Southeast 513 590 35,000  Level FlightAware
10:06PM 30.2690 -90.6550 127° Southeast 513 590 35,000  Level FlightAware
10:07PM 30.2190 -90.5760 126° Southeast 513 590 35,000  Level FlightAware
10:07PM 30.1550 -90.4760 126° Southeast 514 592 35,000  Level FlightAware
10:08PM 30.0970 -90.3860 127° Southeast 512 589 35,000  Level FlightAware
10:09PM 30.0350 -90.2890 126° Southeast 501 577 35,000  Level FlightAware
10:09PM 29.9800 -90.2030 126° Southeast 500 575 35,000  Level FlightAware
10:10PM 29.9120 -90.0980 127° Southeast 503 579 35,000  Level FlightAware
10:11PM 29.8370 -89.9820 127° Southeast 505 581 35,000  Level FlightAware
10:12PM 29.7740 -89.8970 130° Southeast 505 581 35,000  Level FlightAware
10:12PM 29.7090 -89.8110 131° Southeast 505 581 35,000  Level FlightAware
10:13PM 29.6600 -89.7270 124° Southeast 512 589 35,000  Level FlightAware
10:14PM 29.6220 -89.6110 111° Southeast 512 589 35,000  Level FlightAware
10:15PM 29.5920 -89.5060 108° East 509 586 35,000  Level FlightAware
10:15PM 29.5610 -89.3940 108° East 505 581 35,000  Level FlightAware
10:16PM 29.5310 -89.2860 108° East 503 579 35,000  Level FlightAware
10:17PM 29.5030 -89.1850 108° East 502 578 35,000  Level FlightAware
10:17PM 29.4760 -89.0900 108° East 500 575 35,000  Level FlightAware
10:18PM 29.4450 -88.9800 108° East 497 572 35,000  Level FlightAware
10:19PM 29.4070 -88.8420 108° East 496 571 35,000  Level FlightAware
10:20PM 29.3780 -88.7440 109° East 494 568 35,000  Level FlightAware
10:20PM 29.3420 -88.6190 108° East 493 567 35,000  Level FlightAware
10:21PM 29.3170 -88.5330 108° East 493 567 35,000  Level FlightAware
10:22PM 29.2870 -88.4270 108° East 493 567 35,000  Level FlightAware
10:22PM 29.2650 -88.3510 108° East 493 567 35,000  Level FlightAware
10:23PM 29.2370 -88.2500 108° East 493 567 35,000  Level FlightAware
10:24PM 29.2140 -88.1710 108° East 493 567 35,000  Level FlightAware
10:25PM 29.1870 -88.0740 108° East 493 567 35,000  Level FlightAware
10:25PM 29.1620 -87.9880 108° East 493 567 35,000  Level FlightAware
10:26PM 29.1400 -87.9070 107° East 493 567 35,000  Level FlightAware
10:27PM 29.1100 -87.8040 108° East 493 567 35,000  Level FlightAware
10:27PM 29.0890 -87.7280 108° East 493 567 35,000  Level FlightAware
10:28PM 29.0520 -87.5990 108° East 493 567 35,000  Level FlightAware
10:29PM 29.0320 -87.5280 108° East 493 567 35,000  Level FlightAware
10:30PM 29.0030 -87.4260 108° East 493 567 35,000  Level FlightAware
10:30PM 28.9800 -87.3460 108° East 493 567 35,000  Level FlightAware
10:32PM 28.8494 -87.0344 108° East 467 537 35,000 -60 Level Houston Center
10:33PM 28.7933 -86.9003 115° Southeast 469 540 34,900  Descending Houston Center
10:33PM 28.7461 -86.7853 115° Southeast 465 535 35,000  Climbing Jacksonville Center
10:34PM 28.6917 -86.6553 115° Southeast 465 535 34,900 -60 Descending Jacksonville Center
10:35PM 28.6372 -86.5186 114° Southeast 465 535 34,900  Level Jacksonville Center
10:36PM 28.5803 -86.3842 116° Southeast 467 537 35,000  Climbing Jacksonville Center
10:37PM 28.5114 -86.2281 117° Southeast 479 551 35,000  Level Jacksonville Center
10:38PM 28.4544 -86.0964 116° Southeast 474 545 35,000  Level Jacksonville Center
10:39PM 28.3950 -85.9578 116° Southeast 474 545 35,000 -60 Level Jacksonville Center
10:40PM 28.3356 -85.8214 116° Southeast 479 551 34,900 -60 Descending Jacksonville Center
10:42PM 28.2481 -85.6144 116° Southeast 480 552 34,900  Level Miami Center
10:47PM 27.9180 -84.8670 116° Southeast 494 568 35,000  Climbing FlightAware
10:48PM 27.8670 -84.7540 117° Southeast 494 568 35,000  Level FlightAware
10:49PM 27.8270 -84.6610 116° Southeast 497 572 35,000  Level FlightAware
10:50PM 27.7900 -84.5660 114° Southeast 498 573 35,000  Level FlightAware
10:50PM 27.7490 -84.4600 114° Southeast 498 573 35,000  Level FlightAware
10:51PM 27.7240 -84.3980 114° Southeast 499 574 35,000  Level FlightAware
10:51PM 27.6840 -84.2960 114° Southeast 499 574 35,000  Level FlightAware
10:52PM 27.6420 -84.1920 114° Southeast 498 573 35,000  Level FlightAware
10:53PM 27.6040 -84.0980 115° Southeast 500 575 35,000  Level FlightAware
10:53PM 27.5640 -83.9980 114° Southeast 501 577 35,000  Level FlightAware
10:54PM 27.5230 -83.8970 115° Southeast 501 577 35,000  Level FlightAware
10:55PM 27.4880 -83.8090 114° Southeast 501 577 35,000  Level FlightAware
10:56PM 27.4430 -83.6980 115° Southeast 504 580 35,000  Level FlightAware
10:56PM 27.4000 -83.5920 115° Southeast 506 582 35,000  Level FlightAware
10:57PM 27.3620 -83.4980 114° Southeast 508 585 35,000  Level FlightAware
10:58PM 27.3200 -83.3950 115° Southeast 510 587 35,000  Level FlightAware
10:58PM 27.2800 -83.2970 115° Southeast 511 588 35,000  Level FlightAware
10:59PM 27.2230 -83.1570 115° Southeast 512 589 35,000  Level FlightAware
11:00PM 27.1880 -83.0730 115° Southeast 514 592 35,000  Level FlightAware
11:01PM 27.1480 -82.9740 114° Southeast 514 592 35,000  Level FlightAware
11:02PM 27.0930 -82.8400 115° Southeast 515 593 35,000  Level FlightAware
11:03PM 27.0290 -82.6870 115° Southeast 514 592 35,000  Level FlightAware
11:04PM 26.9800 -82.5660 114° Southeast 513 590 35,000  Level FlightAware
11:04PM 26.9320 -82.4540 116° Southeast 511 588 35,000  Level FlightAware
11:05PM 26.9010 -82.3760 114° Southeast 511 588 35,000  Level FlightAware
11:06PM 26.8620 -82.2770 114° Southeast 511 588 35,000  Level FlightAware
11:06PM 26.8320 -82.2010 114° Southeast 511 588 35,000  Level FlightAware
11:07PM 26.7610 -82.0450 117° Southeast 512 589 35,000  Level FlightAware
11:08PM 26.7270 -81.9640 115° Southeast 512 589 35,000  Level FlightAware
11:08PM 26.7930 -82.1220 295° West 511 588 35,000  Level FlightAware
11:09PM 26.7610 -82.0470 116° Southeast 512 589 35,000  Level FlightAware
11:10PM 26.7240 -81.9580 115° Southeast 513 590 35,000  Level FlightAware
11:10PM 26.6850 -81.8670 116° Southeast 514 592 35,000  Level FlightAware
11:11PM 26.6300 -81.7370 115° Southeast 514 592 35,000  Level FlightAware
11:12PM 26.5840 -81.6280 115° Southeast 515 593 35,000  Level FlightAware
11:13PM 26.5410 -81.5270 115° Southeast 516 594 35,000  Level FlightAware
11:13PM 26.4970 -81.4250 116° Southeast 516 594 35,000  Level FlightAware
11:14PM 26.4430 -81.2980 115° Southeast 514 592 35,000  Level FlightAware
11:15PM 26.3960 -81.1890 116° Southeast 512 589 35,000  Level FlightAware
11:15PM 26.3580 -81.1010 116° Southeast 511 588 35,000  Level FlightAware
11:16PM 26.3050 -80.9770 115° Southeast 508 585 35,000  Level FlightAware
11:17PM 26.2660 -80.8870 116° Southeast 506 582 35,000  Level FlightAware
11:18PM 26.1180 -80.5480 116° Southeast 501 577 35,000  Level FlightAware
11:18PM 26.0770 -80.4550 116° Southeast 500 575 35,000  Level FlightAware
11:19PM 26.0320 -80.3510 116° Southeast 501 577 35,000  Level FlightAware
11:20PM 25.9950 -80.2670 116° Southeast 501 577 35,000  Level FlightAware
11:20PM 25.9500 -80.1640 116° Southeast 502 578 35,000  Level FlightAware
11:21PM 25.9040 -80.0590 116° Southeast 502 578 35,000  Level FlightAware
11:22PM 25.8600 -79.9670 118° Southeast 505 581 35,000  Level FlightAware
11:22PM 25.8080 -79.8830 125° Southeast 504 580 35,000  Level FlightAware
11:23PM 25.7480 -79.8030 130° Southeast 499 574 35,000  Level FlightAware
11:24PM 25.6780 -79.7070 129° Southeast 503 579 35,000  Level FlightAware
11:25PM 25.6150 -79.6210 129° Southeast 503 579 35,000  Level FlightAware
11:25PM 25.5430 -79.5240 129° Southeast 503 579 35,000  Level FlightAware
11:26PM 25.4690 -79.4240 129° Southeast 503 579 35,000  Level FlightAware
11:27PM 25.4100 -79.3440 129° Southeast 503 579 35,000  Level FlightAware
11:28PM 25.3550 -79.2700 129° Southeast 498 573 35,000  Level FlightAware
11:28PM 25.3070 -79.2020 128° Southeast 498 573 35,000  Level FlightAware
11:29PM 25.2320 -79.1010 129° Southeast 497 572 35,000  Level FlightAware
11:30PM 25.1880 -79.0400 129° Southeast 497 572 35,000  Level FlightAware
11:30PM 25.1310 -78.9580 128° Southeast 497 572 35,000  Level FlightAware
11:31PM 25.0870 -78.8970 129° Southeast 497 572 35,000  Level FlightAware
11:32PM 25.0320 -78.8190 128° Southeast 497 572 35,000  Level FlightAware
11:32PM 24.9870 -78.7560 128° Southeast 497 572 35,000  Level FlightAware
11:33PM 24.9300 -78.6740 127° Southeast 497 572 35,000  Level FlightAware
11:34PM 24.8740 -78.5960 128° Southeast 497 572 35,000  Level FlightAware
11:35PM 24.8310 -78.5350 128° Southeast 497 572 35,000  Level FlightAware
11:35PM 24.7730 -78.4530 128° Southeast 497 572 35,000  Level FlightAware
11:36PM 24.7300 -78.3920 128° Southeast 497 572 35,000  Level FlightAware
11:37PM 24.6850 -78.3300 129° Southeast 497 572 35,000  Level FlightAware
11:37PM 24.6260 -78.2470 128° Southeast 497 572 35,000  Level FlightAware
11:38PM 24.5830 -78.1860 128° Southeast 497 572 35,000  Level FlightAware
11:39PM 24.3275 -77.8989 128° Southeast 506 582 35,000  Level Miami Center
11:40PM 24.2361 -77.7819 131° Southeast 506 582 35,000  Level Miami Center
11:41PM 24.1450 -77.6628 130° Southeast 506 582 35,000  Level Miami Center
11:42PM 24.0556 -77.5417 129° Southeast 506 582 35,000  Level Miami Center
11:43PM 23.9642 -77.4228 130° Southeast 506 582 35,000  Level Miami Center
11:44PM 23.8747 -77.3067 130° Southeast 506 582 35,000  Level Miami Center
11:45PM 23.7831 -77.1814 129° Southeast 506 582 35,000  Level Miami Center
11:46PM 23.7039 -77.0858 132° Southeast 501 577 35,000  Level Miami Center
11:47PM 23.6142 -76.9633 129° Southeast 506 582 35,000  Level Miami Center
11:48PM 23.5200 -76.8475 132° Southeast 506 582 35,000  Level Miami Center
11:49PM 23.4281 -76.7297 130° Southeast 506 582 35,000  Level Miami Center
11:50PM 23.3381 -76.6122 130° Southeast 506 582 35,000  Level Miami Center
11:51PM 23.2439 -76.4903 130° Southeast 506 582 35,000  Level Miami Center
11:52PM 23.1514 -76.3731 131° Southeast 506 582 35,000  Level Miami Center
11:53PM 23.0592 -76.2561 131° Southeast 506 582 35,000  Level Miami Center
11:54PM 22.9689 -76.1392 130° Southeast 506 582 35,000  Level Miami Center
11:55PM 22.8742 -76.0225 131° Southeast 506 582 35,000  Level Miami Center
11:56PM 22.7814 -75.9058 131° Southeast 506 582 35,000  Level Miami Center
11:57PM 22.6908 -75.7894 130° Southeast 506 582 35,000  Level Miami Center
11:58PM 22.5981 -75.6733 131° Southeast 506 582 35,000  Level Miami Center
11:59PM 22.5072 -75.5572 130° Southeast 506 582 35,000  Level Miami Center
12:00AM 22.4144 -75.4411 131° Southeast 506 582 35,000  Level Miami Center
12:01AM 22.3214 -75.3278 132° Southeast 506 582 35,000  Level Miami Center
12:02AM 22.2281 -75.2122 131° Southeast 506 582 35,000  Level Miami Center
12:03AM 22.1350 -75.0967 131° Southeast 506 582 35,000  Level Miami Center
12:04AM 22.0356 -74.9928 136° Southeast 506 582 35,000  Level Miami Center
12:05AM 21.9278 -74.8892 138° Southeast 501 577 35,000  Level Miami Center
12:06AM 21.8178 -74.7900 140° Southeast 506 582 35,000 -60 Level Miami Center
12:07AM 21.7161 -74.6822 135° Southeast 516 594 34,900  Descending Miami Center
12:08AM 21.6081 -74.5814 139° Southeast 521 600 35,000  Climbing Miami Center
12:09AM 21.5000 -74.4761 138° Southeast 516 594 34,900 -60 Descending Miami Center
12:10AM 21.3919 -74.3753 139° Southeast 516 594 34,900  Level Miami Center
12:11AM 21.2839 -74.2750 139° Southeast 516 594 34,900  Level Miami Center
12:12AM 21.1692 -74.1658 138° Southeast 516 594 35,000  Climbing Miami Center
12:13AM 21.0589 -74.0658 140° Southeast 521 600 34,900 -60 Descending Miami Center
12:14AM 20.9483 -73.9614 139° Southeast 516 594 34,900  Level Miami Center
12:15AM 20.8400 -73.8617 139° Southeast 516 594 34,900  Level Miami Center
12:16AM 20.7317 -73.7597 139° Southeast 516 594 35,000  Climbing Miami Center
12:17AM 20.6211 -73.6581 139° Southeast 521 600 35,000 -60 Level Miami Center
12:18AM 20.5125 -73.5586 139° Southeast 516 594 34,900  Descending Miami Center
12:19AM 20.4019 -73.4575 139° Southeast 516 594 35,000  Climbing Miami Center
12:20AM 20.2933 -73.3539 138° Southeast 516 594 35,000 -60 Level Miami Center
12:21AM 20.1844 -73.2528 139° Southeast 516 594 34,900  Descending Miami Center
12:23AM 20.0265 -73.1329 142° Southeast  Level FlightAware Approximate
12:30AM 19.2823 -72.5125 142° Southeast  Level FlightAware Approximate
12:31AM 19.1758 -72.4243 142° Southeast  Level FlightAware Approximate
12:32AM 19.0693 -72.3362 142° Southeast  Level FlightAware Approximate
12:33AM 18.9627 -72.2483 142° Southeast  Level FlightAware Approximate
12:34AM 18.8561 -72.1605 142° Southeast  Level FlightAware Approximate
12:35AM 18.7495 -72.0727 142° Southeast  Level FlightAware Approximate
12:36AM 18.6428 -71.9851 142° Southeast  Level FlightAware Approximate
12:37AM 18.5418 -71.8918 137° Southeast  Level FlightAware Approximate
12:38AM 18.4336 -71.8085 146° Southeast  Level FlightAware Approximate
12:39AM 18.3223 -71.7292 145° Southeast  Level FlightAware Approximate
12:40AM 18.2136 -71.6462 144° Southeast  Level FlightAware Approximate
12:40AM 18.0630 -71.5240 144° Southeast 512 589 35,000  Level FlightAware
12:40AM 17.9710 -71.4510 143° Southeast 509 586 35,000  Level FlightAware
12:41AM 17.9020 -71.3950 142° Southeast 509 586 35,000  Level FlightAware
12:42AM 17.8440 -71.3470 142° Southeast 509 586 35,000  Level FlightAware
12:42AM 17.7680 -71.2850 142° Southeast 509 586 35,000  Level FlightAware
12:43AM 17.7120 -71.2390 142° Southeast 509 586 35,000  Level FlightAware
12:44AM 17.6360 -71.1760 142° Southeast 509 586 35,000  Level FlightAware
12:44AM 17.5790 -71.1300 142° Southeast 509 586 35,000  Level FlightAware
12:45AM 17.5030 -71.0680 142° Southeast 509 586 35,000  Level FlightAware
12:46AM 17.4450 -71.0200 142° Southeast 509 586 35,000  Level FlightAware
12:47AM 17.3690 -70.9580 142° Southeast 509 586 35,000  Level FlightAware
12:47AM 17.3130 -70.9120 142° Southeast 509 586 35,000  Level FlightAware
12:48AM 17.2370 -70.8500 142° Southeast 509 586 35,000  Level FlightAware
12:49AM 17.1780 -70.8020 142° Southeast 509 586 35,000  Level FlightAware
12:49AM 17.1030 -70.7400 142° Southeast 509 586 35,000  Level FlightAware
12:50AM 17.0460 -70.6940 142° Southeast 509 586 35,000  Level FlightAware
12:51AM 16.7300 -70.4790 147° Southeast 498 573 35,000  Level FlightAware
12:52AM 16.6500 -70.4160 143° Southeast 498 573 35,000  Level FlightAware
12:53AM 16.5920 -70.3710 143° Southeast 498 573 35,000  Level FlightAware
12:54AM 16.5170 -70.3120 143° Southeast 498 573 35,000  Level FlightAware
12:54AM 16.4610 -70.2670 142° Southeast 498 573 35,000  Level FlightAware
12:55AM 16.4030 -70.2220 143° Southeast 498 573 35,000  Level FlightAware
12:56AM 16.3280 -70.1630 143° Southeast 498 573 35,000  Level FlightAware
12:56AM 16.2700 -70.1170 143° Southeast 498 573 35,000  Level FlightAware
12:57AM 16.1950 -70.0580 143° Southeast 498 573 35,000  Level FlightAware
12:58AM 16.1390 -70.0140 143° Southeast 498 573 35,000  Level FlightAware
12:59AM 16.0640 -69.9550 143° Southeast 498 573 35,000  Level FlightAware
12:59AM 16.0070 -69.9110 143° Southeast 498 573 35,000  Level FlightAware
01:00AM 15.9290 -69.8500 143° Southeast 498 573 35,000  Level FlightAware
01:01AM 15.8710 -69.8050 143° Southeast 498 573 35,000  Level FlightAware
01:01AM 15.7960 -69.7460 143° Southeast 498 573 35,000  Level FlightAware
01:04AM 15.5630 -69.5776 145° Southeast  Level FlightAware Approximate
01:05AM 15.4528 -69.4982 145° Southeast  Level FlightAware Approximate
01:06AM 15.3427 -69.4189 145° Southeast  Level FlightAware Approximate
01:07AM 15.2324 -69.3396 145° Southeast  Level FlightAware Approximate
01:08AM 15.1222 -69.2605 145° Southeast  Level FlightAware Approximate
01:09AM 15.0120 -69.1814 145° Southeast  Level FlightAware Approximate
01:10AM 14.9017 -69.1024 145° Southeast  Level FlightAware Approximate
01:11AM 14.7914 -69.0235 145° Southeast  Level FlightAware Approximate
01:12AM 14.6811 -68.9446 145° Southeast  Level FlightAware Approximate
01:13AM 14.5707 -68.8659 145° Southeast  Level FlightAware Approximate
01:14AM 14.4603 -68.7872 145° Southeast  Level FlightAware Approximate
01:15AM 14.3499 -68.7086 145° Southeast  Level FlightAware Approximate
01:16AM 14.2395 -68.6301 145° Southeast  Level FlightAware Approximate
01:17AM 14.1290 -68.5516 145° Southeast  Level FlightAware Approximate
01:18AM 14.0185 -68.4733 145° Southeast  Level FlightAware Approximate
01:19AM 13.9080 -68.3950 145° Southeast  Level FlightAware Approximate
01:20AM 13.7974 -68.3167 146° Southeast  Level FlightAware Approximate
01:21AM 13.6869 -68.2386 146° Southeast  Level FlightAware Approximate
01:22AM 13.5763 -68.1605 146° Southeast  Level FlightAware Approximate
01:23AM 13.4657 -68.0825 146° Southeast  Level FlightAware Approximate
01:24AM 13.3550 -68.0046 146° Southeast  Level FlightAware Approximate
01:25AM 13.2444 -67.9267 146° Southeast  Level FlightAware Approximate
01:26AM 13.1337 -67.8490 146° Southeast  Level FlightAware Approximate
01:27AM 13.0230 -67.7712 146° Southeast  Level FlightAware Approximate
01:28AM 12.9122 -67.6936 146° Southeast  Level FlightAware Approximate
01:29AM 12.8012 -67.6150 145° Southeast  Level FlightAware Approximate
01:30AM 12.6915 -67.5364 145° Southeast  Level FlightAware Approximate
01:31AM 12.5817 -67.4579 145° Southeast  Level FlightAware Approximate
01:32AM 12.4719 -67.3794 145° Southeast  Level FlightAware Approximate
01:33AM 12.3620 -67.3011 145° Southeast  Level FlightAware Approximate
01:34AM 12.2522 -67.2227 145° Southeast  Level FlightAware Approximate
01:35AM 12.1423 -67.1445 145° Southeast  Level FlightAware Approximate
01:36AM 12.0324 -67.0663 145° Southeast  Level FlightAware Approximate
01:37AM 11.9225 -66.9881 145° Southeast  Level FlightAware Approximate
01:38AM 11.8126 -66.9101 145° Southeast  Level FlightAware Approximate
01:39AM 11.7026 -66.8321 145° Southeast  Level FlightAware Approximate
01:40AM 11.5926 -66.7541 145° Southeast  Level FlightAware Approximate
01:41AM 11.4826 -66.6762 145° Southeast  Level FlightAware Approximate
01:42AM 11.3724 -66.5983 145° Southeast  Level FlightAware Approximate
01:43AM 11.2622 -66.5204 145° Southeast  Level FlightAware Approximate
01:44AM 11.1531 -66.4412 144° Southeast  Level FlightAware Approximate
01:45AM 11.0444 -66.3615 144° Southeast  Level FlightAware Approximate
01:46AM 10.9357 -66.2819 144° Southeast  Level FlightAware Approximate
01:47AM 10.8270 -66.2023 144° Southeast  Level FlightAware Approximate
01:48AM 10.7183 -66.1229 144° Southeast  Level FlightAware Approximate
01:49AM 10.6095 -66.0434 144° Southeast  Level FlightAware Approximate
01:50AM 10.5004 -65.9650 145° Southeast  Level FlightAware Approximate
01:51AM 10.3906 -65.8875 145° Southeast  Level FlightAware Approximate
01:52AM 10.2808 -65.8101 145° Southeast  Level FlightAware Approximate
01:53AM 10.1709 -65.7327 145° Southeast  Level FlightAware Approximate
01:54AM 10.0611 -65.6554 145° Southeast  Level FlightAware Approximate
01:55AM 9.9512 -65.5781 145° Southeast  Level FlightAware Approximate
01:56AM 9.8413 -65.5009 145° Southeast  Level FlightAware Approximate
01:57AM 9.7314 -65.4238 145° Southeast  Level FlightAware Approximate
01:58AM 9.6215 -65.3467 145° Southeast  Level FlightAware Approximate
01:59AM 9.5115 -65.2696 145° Southeast  Level FlightAware Approximate
02:00AM 9.4016 -65.1926 145° Southeast  Level FlightAware Approximate
02:01AM 9.2916 -65.1156 145° Southeast  Level FlightAware Approximate
02:02AM 9.1816 -65.0387 145° Southeast  Level FlightAware Approximate
02:03AM 9.0718 -64.9615 145° Southeast  Level FlightAware Approximate
02:04AM 8.9622 -64.8842 145° Southeast  Level FlightAware Approximate
02:05AM 8.8525 -64.8069 145° Southeast  Level FlightAware Approximate
02:06AM 8.7428 -64.7297 145° Southeast  Level FlightAware Approximate
02:07AM 8.6330 -64.6525 145° Southeast  Level FlightAware Approximate
02:08AM 8.5233 -64.5753 145° Southeast  Level FlightAware Approximate
02:09AM 8.4136 -64.4982 145° Southeast  Level FlightAware Approximate
02:10AM 8.3038 -64.4212 145° Southeast  Level FlightAware Approximate
02:11AM 8.1940 -64.3441 145° Southeast  Level FlightAware Approximate
02:12AM 8.0842 -64.2672 145° Southeast  Level FlightAware Approximate
02:13AM 7.9744 -64.1902 145° Southeast  Level FlightAware Approximate
02:14AM 7.8646 -64.1134 145° Southeast  Level FlightAware Approximate
02:15AM 7.7548 -64.0365 145° Southeast  Level FlightAware Approximate
02:16AM 7.6449 -63.9597 145° Southeast  Level FlightAware Approximate
02:17AM 7.5349 -63.8832 146° Southeast  Level FlightAware Approximate
02:18AM 7.4246 -63.8071 146° Southeast  Level FlightAware Approximate
02:19AM 7.3142 -63.7310 146° Southeast  Level FlightAware Approximate
02:20AM 7.2039 -63.6550 146° Southeast  Level FlightAware Approximate
02:21AM 7.0936 -63.5790 146° Southeast  Level FlightAware Approximate
02:22AM 6.9832 -63.5030 146° Southeast  Level FlightAware Approximate
02:23AM 6.8729 -63.4271 146° Southeast  Level FlightAware Approximate
02:24AM 6.7625 -63.3512 146° Southeast  Level FlightAware Approximate
02:25AM 6.6521 -63.2753 146° Southeast  Level FlightAware Approximate
02:26AM 6.5417 -63.1995 146° Southeast  Level FlightAware Approximate
02:27AM 6.4313 -63.1237 146° Southeast  Level FlightAware Approximate
02:28AM 6.3209 -63.0480 146° Southeast  Level FlightAware Approximate
02:29AM 6.2105 -62.9723 146° Southeast  Level FlightAware Approximate
02:30AM 6.1000 -62.8966 146° Southeast  Level FlightAware Approximate
02:31AM 5.9896 -62.8209 146° Southeast  Level FlightAware Approximate
02:32AM 5.8791 -62.7453 146° Southeast  Level FlightAware Approximate
02:33AM 5.7686 -62.6697 146° Southeast  Level FlightAware Approximate
02:34AM 5.6582 -62.5941 146° Southeast  Level FlightAware Approximate
02:35AM 5.5477 -62.5186 146° Southeast  Level FlightAware Approximate
02:36AM 5.4372 -62.4431 146° Southeast  Level FlightAware Approximate
02:37AM 5.3268 -62.3677 146° Southeast  Level FlightAware Approximate
02:38AM 5.2165 -62.2924 146° Southeast  Level FlightAware Approximate
02:39AM 5.1062 -62.2171 146° Southeast  Level FlightAware Approximate
02:40AM 4.9958 -62.1418 146° Southeast  Level FlightAware Approximate
02:41AM 4.8855 -62.0666 146° Southeast  Level FlightAware Approximate
02:42AM 4.7751 -61.9913 146° Southeast  Level FlightAware Approximate
02:43AM 4.6647 -61.9161 146° Southeast  Level FlightAware Approximate
02:44AM 4.5544 -61.8410 146° Southeast  Level FlightAware Approximate
02:45AM 4.4440 -61.7658 146° Southeast  Level FlightAware Approximate
02:46AM 4.3336 -61.6907 146° Southeast  Level FlightAware Approximate
02:47AM 4.2232 -61.6156 146° Southeast  Level FlightAware Approximate
02:48AM 4.1128 -61.5405 146° Southeast  Level FlightAware Approximate
02:49AM 4.0023 -61.4654 146° Southeast  Level FlightAware Approximate
02:50AM 3.8919 -61.3904 146° Southeast  Level FlightAware Approximate
02:51AM 3.7815 -61.3153 146° Southeast  Level FlightAware Approximate
02:52AM 3.6711 -61.2403 146° Southeast  Level FlightAware Approximate
02:53AM 3.5606 -61.1653 146° Southeast  Level FlightAware Approximate
02:54AM 3.4502 -61.0904 146° Southeast  Level FlightAware Approximate
02:55AM 3.3397 -61.0154 146° Southeast  Level FlightAware Approximate
02:56AM 3.2292 -60.9405 146° Southeast  Level FlightAware Approximate
02:57AM 3.1188 -60.8655 146° Southeast  Level FlightAware Approximate
02:58AM 3.0083 -60.7906 146° Southeast  Level FlightAware Approximate
02:59AM 2.8976 -60.7156 146° Southeast  Level FlightAware Approximate
03:00AM 2.7822 -60.6487 153° Southeast  Level FlightAware Approximate
03:01AM 2.6632 -60.5878 153° Southeast  Level FlightAware Approximate
03:02AM 2.5442 -60.5269 153° Southeast  Level FlightAware Approximate
03:03AM 2.4252 -60.4660 153° Southeast  Level FlightAware Approximate
03:04AM 2.3062 -60.4052 153° Southeast  Level FlightAware Approximate
03:05AM 2.1872 -60.3443 153° Southeast  Level FlightAware Approximate
03:06AM 2.0682 -60.2835 153° Southeast  Level FlightAware Approximate
03:07AM 1.9491 -60.2226 153° Southeast  Level FlightAware Approximate
03:08AM 1.8301 -60.1618 153° Southeast  Level FlightAware Approximate
03:09AM 1.7111 -60.1010 153° Southeast  Level FlightAware Approximate
03:10AM 1.5921 -60.0402 153° Southeast  Level FlightAware Approximate
03:11AM 1.4730 -59.9794 153° Southeast  Level FlightAware Approximate
03:12AM 1.3540 -59.9186 153° Southeast  Level FlightAware Approximate
03:13AM 1.2350 -59.8578 153° Southeast  Level FlightAware Approximate
03:14AM 1.1159 -59.7971 153° Southeast  Level FlightAware Approximate
03:15AM 0.9969 -59.7363 153° Southeast  Level FlightAware Approximate
03:16AM 0.8779 -59.6755 153° Southeast  Level FlightAware Approximate
03:17AM 0.7588 -59.6147 153° Southeast  Level FlightAware Approximate
03:18AM 0.6398 -59.5540 153° Southeast  Level FlightAware Approximate
03:19AM 0.5208 -59.4932 153° Southeast  Level FlightAware Approximate
03:20AM 0.4017 -59.4325 153° Southeast  Level FlightAware Approximate
03:21AM 0.2827 -59.3717 153° Southeast  Level FlightAware Approximate
03:22AM 0.1637 -59.3110 153° Southeast  Level FlightAware Approximate
03:23AM 0.0446 -59.2502 153° Southeast  Level FlightAware Approximate
03:24AM -0.0744 -59.1895 153° Southeast  Level FlightAware Approximate
03:25AM -0.1935 -59.1287 153° Southeast  Level FlightAware Approximate
03:26AM -0.3125 -59.0680 153° Southeast  Level FlightAware Approximate
03:27AM -0.4315 -59.0072 153° Southeast  Level FlightAware Approximate
03:28AM -0.5506 -58.9465 153° Southeast  Level FlightAware Approximate
03:29AM -0.6696 -58.8857 153° Southeast  Level FlightAware Approximate
03:30AM -0.7887 -58.8249 153° Southeast  Level FlightAware Approximate
03:31AM -0.9077 -58.7642 153° Southeast  Level FlightAware Approximate
03:32AM -1.0267 -58.7034 153° Southeast  Level FlightAware Approximate
03:33AM -1.1458 -58.6426 153° Southeast  Level FlightAware Approximate
03:34AM -1.2648 -58.5818 153° Southeast  Level FlightAware Approximate
03:35AM -1.3838 -58.5211 153° Southeast  Level FlightAware Approximate
03:36AM -1.5029 -58.4603 153° Southeast  Level FlightAware Approximate
03:37AM -1.6219 -58.3995 153° Southeast  Level FlightAware Approximate
03:38AM -1.7409 -58.3387 153° Southeast  Level FlightAware Approximate
03:39AM -1.8599 -58.2779 153° Southeast  Level FlightAware Approximate
03:40AM -1.9789 -58.2170 153° Southeast  Level FlightAware Approximate
03:41AM -2.0980 -58.1562 153° Southeast  Level FlightAware Approximate
03:42AM -2.2170 -58.0954 153° Southeast  Level FlightAware Approximate
03:43AM -2.3360 -58.0345 153° Southeast  Level FlightAware Approximate
03:44AM -2.4550 -57.9737 153° Southeast  Level FlightAware Approximate
03:45AM -2.5740 -57.9128 153° Southeast  Level FlightAware Approximate
03:46AM -2.6930 -57.8519 153° Southeast  Level FlightAware Approximate
03:47AM -2.8120 -57.7910 153° Southeast  Level FlightAware Approximate
03:48AM -2.9310 -57.7301 153° Southeast  Level FlightAware Approximate
03:49AM -3.0500 -57.6692 153° Southeast  Level FlightAware Approximate
03:50AM -3.1690 -57.6083 153° Southeast  Level FlightAware Approximate
03:51AM -3.2880 -57.5473 153° Southeast  Level FlightAware Approximate
03:52AM -3.4070 -57.4864 153° Southeast  Level FlightAware Approximate
03:53AM -3.5260 -57.4254 153° Southeast  Level FlightAware Approximate
03:54AM -3.6449 -57.3644 153° Southeast  Level FlightAware Approximate
03:55AM -3.7639 -57.3034 153° Southeast  Level FlightAware Approximate
03:56AM -3.8829 -57.2424 153° Southeast  Level FlightAware Approximate
03:57AM -4.0019 -57.1813 153° Southeast  Level FlightAware Approximate
03:58AM -4.1208 -57.1203 153° Southeast  Level FlightAware Approximate
03:59AM -4.2398 -57.0592 153° Southeast  Level FlightAware Approximate
04:00AM -4.3587 -56.9981 153° Southeast  Level FlightAware Approximate
04:01AM -4.4777 -56.9370 153° Southeast  Level FlightAware Approximate
04:02AM -4.5966 -56.8758 153° Southeast  Level FlightAware Approximate
04:03AM -4.7155 -56.8147 153° Southeast  Level FlightAware Approximate
04:04AM -4.8345 -56.7535 153° Southeast  Level FlightAware Approximate
04:05AM -4.9534 -56.6923 153° Southeast  Level FlightAware Approximate
04:06AM -5.0723 -56.6311 153° Southeast  Level FlightAware Approximate
04:07AM -5.1912 -56.5698 153° Southeast  Level FlightAware Approximate
04:08AM -5.3101 -56.5086 153° Southeast  Level FlightAware Approximate
04:09AM -5.4290 -56.4473 153° Southeast  Level FlightAware Approximate
04:10AM -5.5479 -56.3860 153° Southeast  Level FlightAware Approximate
04:11AM -5.6668 -56.3246 153° Southeast  Level FlightAware Approximate
04:12AM -5.7857 -56.2633 153° Southeast  Level FlightAware Approximate
04:13AM -5.9046 -56.2019 153° Southeast  Level FlightAware Approximate
04:14AM -6.0235 -56.1405 153° Southeast  Level FlightAware Approximate
04:15AM -6.1423 -56.0790 153° Southeast  Level FlightAware Approximate
04:16AM -6.2612 -56.0176 153° Southeast  Level FlightAware Approximate
04:17AM -6.3800 -55.9561 153° Southeast  Level FlightAware Approximate
04:18AM -6.4989 -55.8945 153° Southeast  Level FlightAware Approximate
04:19AM -6.6177 -55.8330 153° Southeast  Level FlightAware Approximate
04:20AM -6.7365 -55.7714 153° Southeast  Level FlightAware Approximate
04:21AM -6.8554 -55.7098 153° Southeast  Level FlightAware Approximate
04:22AM -6.9742 -55.6481 153° Southeast  Level FlightAware Approximate
04:23AM -7.0930 -55.5864 153° Southeast  Level FlightAware Approximate
04:24AM -7.2118 -55.5247 153° Southeast  Level FlightAware Approximate
04:25AM -7.3305 -55.4630 153° Southeast  Level FlightAware Approximate
04:26AM -7.4493 -55.4012 153° Southeast  Level FlightAware Approximate
04:27AM -7.5681 -55.3394 153° Southeast  Level FlightAware Approximate
04:28AM -7.6869 -55.2776 153° Southeast  Level FlightAware Approximate
04:29AM -7.8056 -55.2157 153° Southeast  Level FlightAware Approximate
04:30AM -7.9243 -55.1538 153° Southeast  Level FlightAware Approximate
04:31AM -8.0431 -55.0918 153° Southeast  Level FlightAware Approximate
04:32AM -8.1618 -55.0299 153° Southeast  Level FlightAware Approximate
04:33AM -8.2805 -54.9678 153° Southeast  Level FlightAware Approximate
04:34AM -8.3992 -54.9058 153° Southeast  Level FlightAware Approximate
04:35AM -8.5179 -54.8437 153° Southeast  Level FlightAware Approximate
04:36AM -8.6366 -54.7815 153° Southeast  Level FlightAware Approximate
04:37AM -8.7553 -54.7194 153° Southeast  Level FlightAware Approximate
04:38AM -8.8737 -54.6573 153° Southeast  Level FlightAware Approximate
04:39AM -8.9922 -54.5951 153° Southeast  Level FlightAware Approximate
04:40AM -9.1106 -54.5330 153° Southeast  Level FlightAware Approximate
04:41AM -9.2290 -54.4707 153° Southeast  Level FlightAware Approximate
04:42AM -9.3475 -54.4085 153° Southeast  Level FlightAware Approximate
04:43AM -9.4659 -54.3461 153° Southeast  Level FlightAware Approximate
04:44AM -9.5843 -54.2838 153° Southeast  Level FlightAware Approximate
04:45AM -9.7026 -54.2214 153° Southeast  Level FlightAware Approximate
04:46AM -9.8210 -54.1590 153° Southeast  Level FlightAware Approximate
04:47AM -9.9394 -54.0965 153° Southeast  Level FlightAware Approximate
04:48AM -10.0577 -54.0339 153° Southeast  Level FlightAware Approximate
04:49AM -10.1761 -53.9714 153° Southeast  Level FlightAware Approximate
04:50AM -10.2944 -53.9087 152° Southeast  Level FlightAware Approximate
04:51AM -10.4127 -53.8461 152° Southeast  Level FlightAware Approximate
04:52AM -10.5310 -53.7833 152° Southeast  Level FlightAware Approximate
04:53AM -10.6493 -53.7206 152° Southeast  Level FlightAware Approximate
04:54AM -10.7676 -53.6578 152° Southeast  Level FlightAware Approximate
04:55AM -10.8858 -53.5949 152° Southeast  Level FlightAware Approximate
04:56AM -11.0041 -53.5320 152° Southeast  Level FlightAware Approximate
04:57AM -11.1223 -53.4690 152° Southeast  Level FlightAware Approximate
04:58AM -11.2405 -53.4060 152° Southeast  Level FlightAware Approximate
04:59AM -11.3587 -53.3429 152° Southeast  Level FlightAware Approximate
05:00AM -11.4769 -53.2798 152° Southeast  Level FlightAware Approximate
05:01AM -11.5951 -53.2166 152° Southeast  Level FlightAware Approximate
05:02AM -11.7133 -53.1534 152° Southeast  Level FlightAware Approximate
05:03AM -11.8314 -53.0901 152° Southeast  Level FlightAware Approximate
05:04AM -11.9496 -53.0268 152° Southeast  Level FlightAware Approximate
05:05AM -12.0677 -52.9634 152° Southeast  Level FlightAware Approximate
05:06AM -12.1858 -52.9000 152° Southeast  Level FlightAware Approximate
05:07AM -12.3039 -52.8365 152° Southeast  Level FlightAware Approximate
05:08AM -12.4220 -52.7729 152° Southeast  Level FlightAware Approximate
05:09AM -12.5401 -52.7093 152° Southeast  Level FlightAware Approximate
05:10AM -12.6581 -52.6456 152° Southeast  Level FlightAware Approximate
05:11AM -12.7762 -52.5819 152° Southeast  Level FlightAware Approximate
05:12AM -12.8942 -52.5181 152° Southeast  Level FlightAware Approximate
05:13AM -13.0122 -52.4542 152° Southeast  Level FlightAware Approximate
05:14AM -13.1302 -52.3903 152° Southeast  Level FlightAware Approximate
05:15AM -13.2482 -52.3264 152° Southeast  Level FlightAware Approximate
05:16AM -13.3661 -52.2623 152° Southeast  Level FlightAware Approximate
05:17AM -13.4841 -52.1982 152° Southeast  Level FlightAware Approximate
05:18AM -13.6020 -52.1340 152° Southeast  Level FlightAware Approximate
05:19AM -13.7199 -52.0698 152° Southeast  Level FlightAware Approximate
05:20AM -13.8378 -52.0055 152° Southeast  Level FlightAware Approximate
05:21AM -13.9557 -51.9412 152° Southeast  Level FlightAware Approximate
05:22AM -14.0735 -51.8768 152° Southeast  Level FlightAware Approximate
05:23AM -14.1914 -51.8123 152° Southeast  Level FlightAware Approximate
05:24AM -14.3092 -51.7477 152° Southeast  Level FlightAware Approximate
05:25AM -14.4270 -51.6831 152° Southeast  Level FlightAware Approximate
05:26AM -14.5448 -51.6184 152° Southeast  Level FlightAware Approximate
05:27AM -14.6626 -51.5536 152° Southeast  Level FlightAware Approximate
05:28AM -14.7803 -51.4888 152° Southeast  Level FlightAware Approximate
05:29AM -14.8981 -51.4239 152° Southeast  Level FlightAware Approximate
05:30AM -15.0158 -51.3589 152° Southeast  Level FlightAware Approximate
05:31AM -15.1335 -51.2939 152° Southeast  Level FlightAware Approximate
05:32AM -15.2512 -51.2287 152° Southeast  Level FlightAware Approximate
05:33AM -15.3688 -51.1636 152° Southeast  Level FlightAware Approximate
05:34AM -15.4865 -51.0983 152° Southeast  Level FlightAware Approximate
05:35AM -15.6041 -51.0330 152° Southeast  Level FlightAware Approximate
05:36AM -15.7217 -50.9675 152° Southeast  Level FlightAware Approximate
05:37AM -15.8393 -50.9021 152° Southeast  Level FlightAware Approximate
05:38AM -15.9569 -50.8365 152° Southeast  Level FlightAware Approximate
05:39AM -16.0744 -50.7709 152° Southeast  Level FlightAware Approximate
05:40AM -16.1920 -50.7051 152° Southeast  Level FlightAware Approximate
05:41AM -16.3095 -50.6393 152° Southeast  Level FlightAware Approximate
05:42AM -16.4270 -50.5734 152° Southeast  Level FlightAware Approximate
05:43AM -16.5444 -50.5075 152° Southeast  Level FlightAware Approximate
05:44AM -16.6619 -50.4414 152° Southeast  Level FlightAware Approximate
05:45AM -16.7793 -50.3753 152° Southeast  Level FlightAware Approximate
05:46AM -16.8967 -50.3091 152° Southeast  Level FlightAware Approximate
05:47AM -17.0141 -50.2429 152° Southeast  Level FlightAware Approximate
05:48AM -17.1315 -50.1765 152° Southeast  Level FlightAware Approximate
05:49AM -17.2488 -50.1100 152° Southeast  Level FlightAware Approximate
05:50AM -17.3661 -50.0435 152° Southeast  Level FlightAware Approximate
05:51AM -17.4834 -49.9769 152° Southeast  Level FlightAware Approximate
05:51AM -18.2970 -49.8730 152° Southeast 508 585 39,000  Level FlightAware
05:52AM -17.6007 -49.9102 152° Southeast  Level FlightAware Approximate
05:52AM -18.3890 -49.8240 153° Southeast 508 585 39,000  Level FlightAware
05:52AM -18.4710 -49.7800 153° Southeast 508 585 39,000  Level FlightAware
05:53AM -18.5650 -49.7310 154° Southeast 507 583 39,000  Level FlightAware
05:54AM -18.6530 -49.6840 153° Southeast 506 582 39,000  Level FlightAware
05:55AM -18.7360 -49.6400 153° Southeast 506 582 39,000  Level FlightAware
05:55AM -18.7950 -49.6080 153° Southeast 507 583 39,000  Level FlightAware
05:56AM -18.8980 -49.5530 153° Southeast 509 586 39,000  Level FlightAware
05:57AM -18.9980 -49.4970 152° Southeast 509 586 39,000  Level FlightAware
05:57AM -19.0770 -49.4540 153° Southeast 509 586 39,000  Level FlightAware
05:58AM -19.1750 -49.4000 153° Southeast 509 586 39,000  Level FlightAware
05:59AM -19.2600 -49.3530 152° Southeast 509 586 39,000  Level FlightAware
05:59AM -19.3510 -49.3030 153° Southeast 509 586 39,000  Level FlightAware
06:00AM -19.4440 -49.2520 153° Southeast 508 585 39,000  Level FlightAware
06:01AM -19.5610 -49.1870 152° Southeast 508 585 39,000  Level FlightAware
06:02AM -19.6440 -49.1410 152° Southeast 507 583 39,000  Level FlightAware
06:02AM -19.7350 -49.0900 152° Southeast 506 582 39,000  Level FlightAware
06:03AM -19.8180 -49.0440 152° Southeast 505 581 39,000  Level FlightAware
06:04AM -19.9050 -48.9960 153° Southeast 504 580 39,000  Level FlightAware
06:05AM -19.9930 -48.9470 152° Southeast 504 580 39,000  Level FlightAware
06:05AM -20.0700 -48.9040 152° Southeast 504 580 39,000  Level FlightAware
06:06AM -20.1630 -48.8520 152° Southeast 504 580 39,000  Level FlightAware
06:07AM -20.2780 -48.7880 152° Southeast 504 580 39,000  Level FlightAware
06:07AM -20.3560 -48.7440 152° Southeast 504 580 39,000  Level FlightAware
06:08AM -20.4480 -48.6960 154° Southeast 506 582 39,000  Level FlightAware
06:09AM -20.5430 -48.6460 154° Southeast 508 585 39,000  Level FlightAware
06:10AM -20.6500 -48.5890 154° Southeast 510 587 39,000  Level FlightAware
06:11AM -20.7400 -48.5400 153° Southeast 511 588 39,000  Level FlightAware
06:11AM -20.8280 -48.4930 153° Southeast 512 589 39,000  Level FlightAware
06:12AM -20.9290 -48.4390 153° Southeast 513 590 39,000  Level FlightAware
06:13AM -21.0160 -48.3930 154° Southeast 512 589 39,000  Level FlightAware
06:13AM -21.1020 -48.3400 150° Southeast 522 601 39,000  Level FlightAware
06:14AM -21.1790 -48.2760 142° Southeast 524 603 39,000  Level FlightAware
06:15AM -21.2670 -48.2030 142° Southeast 523 602 39,000  Level FlightAware
06:15AM -21.3440 -48.1410 143° Southeast 524 603 39,000  Level FlightAware
06:16AM -21.4260 -48.0750 143° Southeast 523 602 39,000  Level FlightAware
06:17AM -21.4980 -48.0150 142° Southeast 525 604 39,000  Level FlightAware
06:18AM -21.5840 -47.9420 142° Southeast 525 604 39,000  Level FlightAware
06:18AM -21.6680 -47.8720 142° Southeast 524 603 39,000  Level FlightAware
06:19AM -21.7440 -47.8070 142° Southeast 524 603 39,000  Level FlightAware
06:20AM -21.8280 -47.7370 142° Southeast 522 601 39,000  Level FlightAware
06:20AM -21.8950 -47.6800 142° Southeast 521 600 39,000 -600 Level FlightAware
06:21AM -21.9790 -47.6080 142° Southeast 518 596 38,200 -1,500 Descending FlightAware
06:22AM -22.0560 -47.5430 142° Southeast 506 582 36,900 -2,700 Descending FlightAware
06:22AM -22.1350 -47.4760 142° Southeast 511 588 34,400 -3,300 Descending FlightAware
06:23AM -22.2110 -47.4100 141° Southeast 501 577 32,300 -3,480 Descending FlightAware
06:24AM -22.2890 -47.3440 142° Southeast 504 580 29,500 -3,240 Descending FlightAware
06:24AM -22.3620 -47.2820 142° Southeast 478 550 27,900 -2,460 Descending FlightAware
06:25AM -22.4320 -47.2220 142° Southeast 458 527 26,200 -2,400 Descending FlightAware
06:26AM -22.4990 -47.1650 142° Southeast 436 502 24,700 -1,560 Descending FlightAware
06:27AM -22.5640 -47.1090 141° Southeast 391 450 24,000 -1,140 Descending FlightAware
06:27AM -22.6020 -47.0720 138° Southeast 371 427 23,300 -1,380 Descending FlightAware
06:27AM -22.6110 -47.0520 116° Southeast 372 428 23,100 -360 Descending FlightAware
06:28AM -22.6110 -46.9910 90° East 374 430 23,000 -120 Descending FlightAware
06:28AM -22.5660 -46.9410 46° Northeast 374 430 23,000  Level FlightAware
06:29AM -22.5230 -46.9360 North 371 427 23,000  Level FlightAware
06:29AM -22.4960 -46.9460 341° North 368 423 23,000  Level FlightAware
06:30AM -22.4390 -46.9680 340° North 369 425 23,000  Level FlightAware
06:30AM -22.3800 -46.9970 336° Northwest 360 414 23,000  Level FlightAware
06:31AM -22.3620 -47.0210 309° West 350 403 23,000  Level FlightAware
06:31AM -22.3550 -47.0410 291° West 343 395 23,000  Level FlightAware
06:31AM -22.3520 -47.0660 277° West 334 384 23,000  Level FlightAware
06:32AM -22.3650 -47.1110 253° West 319 367 23,000  Level FlightAware
06:32AM -22.3950 -47.1400 222° Southwest 313 360 23,000  Level FlightAware
06:33AM -22.4660 -47.1410 181° South 320 368 23,000  Level FlightAware
06:34AM -22.5330 -47.1170 162° South 318 366 23,000  Level FlightAware
06:34AM -22.5870 -47.0930 158° South 321 369 23,000  Level FlightAware
06:35AM -22.6030 -47.0780 139° Southeast 328 377 23,000  Level FlightAware
06:35AM -22.6160 -47.0570 124° Southeast 337 388 23,000  Level FlightAware
06:35AM -22.6230 -47.0210 102° East 352 405 23,000  Level FlightAware
06:36AM -22.6010 -46.9650 67° East 370 426 23,000  Level FlightAware
06:36AM -22.5850 -46.9520 37° Northeast 372 428 23,000  Level FlightAware
06:36AM -22.5600 -46.9440 16° North 373 429 23,000  Level FlightAware
06:37AM -22.5370 -46.9440 360° North 371 427 23,000  Level FlightAware
06:37AM -22.4630 -46.9730 340° North 356 410 23,000  Level FlightAware
06:38AM -22.3960 -47.0030 338° Northwest 355 409 23,000  Level FlightAware
06:39AM -22.3660 -47.0330 317° Northwest 340 391 23,000  Level FlightAware
06:40AM -22.3750 -47.1290 264° West 304 350 23,000  Level FlightAware
06:40AM -22.3910 -47.1420 217° Southwest 301 346 23,000  Level FlightAware
06:40AM -22.4120 -47.1500 199° South 299 344 23,000  Level FlightAware
06:41AM -22.4690 -47.1400 171° South 304 350 23,000  Level FlightAware
06:41AM -22.5210 -47.1220 162° South 303 349 23,000  Level FlightAware
06:42AM -22.5780 -47.0980 159° South 304 350 23,000  Level FlightAware
06:42AM -22.5940 -47.0860 145° Southeast 311 358 23,000  Level FlightAware
06:43AM -22.6170 -47.0490 124° Southeast 327 376 23,000  Level FlightAware
06:43AM -22.6160 -47.0020 89° East 345 397 23,000  Level FlightAware
06:43AM -22.6080 -46.9870 60° Northeast 351 404 23,000  Level FlightAware
06:44AM -22.5880 -46.9650 45° Northeast 358 412 23,000  Level FlightAware
06:44AM -22.5710 -46.9570 23° Northeast 359 413 23,000  Level FlightAware
06:44AM -22.5400 -46.9550 North 358 412 23,000  Level FlightAware
06:45AM -22.4770 -46.9800 340° North 353 406 23,000  Level FlightAware
06:46AM -22.4340 -46.9980 339° North 353 406 23,000  Level FlightAware
06:46AM -22.3890 -47.0230 333° Northwest 347 399 23,000  Level FlightAware
06:46AM -22.3730 -47.0460 307° West 336 387 23,000  Level FlightAware
06:47AM -22.3660 -47.0790 283° West 323 372 23,000  Level FlightAware
06:47AM -22.3800 -47.1210 250° West 305 351 23,000  Level FlightAware
06:47AM -22.3920 -47.1340 225° Southwest 301 346 23,000  Level FlightAware
06:48AM -22.4110 -47.1460 210° Southwest 299 344 23,000  Level FlightAware
06:48AM -22.4640 -47.1430 177° South 305 351 23,000  Level FlightAware
06:49AM -22.5240 -47.1210 161° South 304 350 23,000  Level FlightAware
06:50AM -22.5750 -47.0990 158° South 305 351 23,000  Level FlightAware
06:50AM -22.6070 -47.0700 140° Southeast 319 367 23,000  Level FlightAware
06:50AM -22.6150 -47.0530 117° Southeast 327 376 23,000  Level FlightAware
06:51AM -22.6200 -47.0240 101° East 339 390 23,000  Level FlightAware
06:51AM -22.6170 -47.0040 81° East 345 397 23,000  Level FlightAware
06:51AM -22.6040 -46.9790 61° Northeast 352 405 23,000  Level FlightAware
06:51AM -22.5880 -46.9650 39° Northeast 356 410 23,000  Level FlightAware
06:51AM -22.5630 -46.9550 20° North 358 412 23,000  Level FlightAware
06:52AM -22.5430 -46.9540 North 357 411 23,000  Level FlightAware
06:52AM -22.4850 -46.9760 341° North 354 407 23,000  Level FlightAware
06:53AM -22.4280 -47.0010 338° Northwest 352 405 23,000  Level FlightAware
06:54AM -22.3870 -47.0240 333° Northwest 344 396 23,000  Level FlightAware
06:54AM -22.3740 -47.0430 306° West 335 386 23,000  Level FlightAware
06:54AM -22.3680 -47.0600 291° West 329 379 23,000  Level FlightAware
06:54AM -22.3660 -47.0810 276° West 321 369 23,000  Level FlightAware
06:54AM -22.3780 -47.1180 251° West 306 352 23,000  Level FlightAware
06:55AM -22.3930 -47.1360 228° Southwest 302 348 23,000  Level FlightAware
06:55AM -22.4100 -47.1460 209° Southwest 300 345 23,000  Level FlightAware
06:55AM -22.4260 -47.1500 193° South 299 344 23,000  Level FlightAware
06:55AM -22.4480 -47.1480 175° South 302 348 23,000  Level FlightAware
06:56AM -22.5040 -47.1280 162° South 304 350 23,000  Level FlightAware
06:57AM -22.5550 -47.1080 160° South 305 351 23,000  Level FlightAware
06:57AM -22.5930 -47.0880 154° Southeast 312 359 23,000  Level FlightAware
06:58AM -22.6080 -47.0680 129° Southeast 320 368 23,000  Level FlightAware
06:58AM -22.6060 -46.9830 89° East 352 405 23,000  Level FlightAware
06:59AM -22.5680 -46.9560 33° Northeast 357 411 23,000  Level FlightAware
06:59AM -22.5450 -46.9550 North 355 409 23,000  Level FlightAware
06:59AM -22.5200 -46.9620 345° North 351 404 23,000  Level FlightAware
07:00AM -22.4740 -46.9820 338° Northwest 352 405 23,000  Level FlightAware
07:01AM -22.3990 -47.0150 338° Northwest 350 403 23,000  Level FlightAware
07:01AM -22.3810 -47.0330 317° Northwest 333 383 23,000  Level FlightAware
07:01AM -22.3720 -47.0480 303° West 330 380 23,000  Level FlightAware
07:02AM -22.3670 -47.0780 280° West 322 371 23,000  Level FlightAware
07:02AM -22.3790 -47.1200 253° West 306 352 23,000  Level FlightAware
07:02AM -22.3920 -47.1340 225° Southwest 302 348 23,000  Level FlightAware
07:02AM -22.4100 -47.1460 212° Southwest 301 346 23,000  Level FlightAware
07:03AM -22.4250 -47.1490 190° South 301 346 23,000  Level FlightAware
07:03AM -22.4460 -47.1490 180° South 303 349 23,000  Level FlightAware
07:04AM -22.5060 -47.1280 162° South 306 352 23,000  Level FlightAware
07:04AM -22.5610 -47.1050 159° South 307 353 23,000  Level FlightAware
07:05AM -22.5970 -47.0850 153° Southeast 314 361 23,000  Level FlightAware
07:05AM -22.6170 -47.0460 119° Southeast 328 377 23,000  Level FlightAware
07:05AM -22.6200 -47.0290 101° East 335 386 23,000  Level FlightAware
07:06AM -22.6050 -46.9810 71° East 353 406 23,000  Level FlightAware
07:06AM -22.5850 -46.9630 40° Northeast 357 411 23,000  Level FlightAware
07:06AM -22.5690 -46.9570 19° North 358 412 23,000  Level FlightAware
07:07AM -22.5400 -46.9560 North 355 409 23,000  Level FlightAware
07:07AM -22.4780 -46.9800 340° North 352 405 23,000  Level FlightAware
07:08AM -22.4240 -47.0040 338° Northwest 345 397 23,000  Level FlightAware
07:08AM -22.3820 -47.0320 328° Northwest 335 386 23,000  Level FlightAware
07:09AM -22.3710 -47.0540 298° West 331 381 23,000  Level FlightAware
07:09AM -22.3670 -47.0770 281° West 322 371 23,000  Level FlightAware
07:09AM -22.3780 -47.1180 254° West 307 353 23,000  Level FlightAware
07:10AM -22.4130 -47.1470 217° Southwest 301 346 23,000  Level FlightAware
07:11AM -22.4860 -47.1340 171° South 306 352 23,000  Level FlightAware
07:12AM -22.5630 -47.1040 160° South 308 354 23,000  Level FlightAware
07:12AM -22.5980 -47.0830 151° Southeast 315 362 23,000  Level FlightAware
07:13AM -22.6160 -47.0500 121° Southeast 328 377 23,000  Level FlightAware
07:13AM -22.6020 -46.9780 78° East 354 407 23,000  Level FlightAware
07:14AM -22.5870 -46.9650 39° Northeast 356 410 23,000  Level FlightAware
07:14AM -22.5680 -46.9570 21° North 357 411 23,000  Level FlightAware
07:14AM -22.5390 -46.9570 360° North 353 406 23,000  Level FlightAware
07:15AM -22.4790 -46.9810 340° North 351 404 23,000  Level FlightAware
07:15AM -22.4150 -47.0090 338° Northwest 344 396 23,000  Level FlightAware
07:16AM -22.3780 -47.0390 323° Northwest 333 383 23,000  Level FlightAware
07:16AM -22.3670 -47.0780 287° West 323 372 23,000  Level FlightAware
07:17AM -22.3810 -47.1220 251° West 302 348 23,000  Level FlightAware
07:17AM -22.3950 -47.1370 225° Southwest 303 349 23,000  Level FlightAware
07:17AM -22.4140 -47.1470 206° Southwest 301 346 23,000  Level FlightAware
07:18AM -22.4700 -47.1400 173° South 300 345 23,000  Level FlightAware
07:19AM -22.5300 -47.1180 161° South 308 354 23,000  Level FlightAware
07:19AM -22.5840 -47.0950 159° South 310 357 23,000  Level FlightAware
07:20AM -22.5990 -47.0820 141° Southeast 311 358 23,000  Level FlightAware
07:20AM -22.6190 -47.0310 113° Southeast 333 383 23,000  Level FlightAware
07:21AM -22.6040 -46.9820 72° East 353 406 23,000  Level FlightAware
07:21AM -22.5850 -46.9650 40° Northeast 356 410 23,000  Level FlightAware
07:21AM -22.5540 -46.9560 15° North 356 410 23,000  Level FlightAware
07:22AM -22.5120 -46.9680 345° North 351 404 23,000  Level FlightAware
07:22AM -22.4620 -46.9890 339° North 351 404 23,000  Level FlightAware
07:23AM -22.4070 -47.0120 339° North 352 405 23,000  Level FlightAware
07:23AM -22.3750 -47.0450 316° Northwest 336 387 23,000  Level FlightAware
07:24AM -22.3670 -47.0790 284° West 324 373 23,000  Level FlightAware
07:24AM -22.3740 -47.1110 257° West 311 358 23,000  Level FlightAware
07:24AM -22.3850 -47.1280 235° Southwest 306 352 23,000  Level FlightAware
07:25AM -22.4000 -47.1410 219° Southwest 302 348 23,000  Level FlightAware
07:25AM -22.4220 -47.1490 199° South 301 346 23,000  Level FlightAware
07:26AM -22.4760 -47.1380 169° South 308 354 23,000  Level FlightAware
07:26AM -22.5300 -47.1180 161° South 308 354 23,000  Level FlightAware
07:27AM -22.5910 -47.0890 156° South 314 361 23,000  Level FlightAware
07:27AM -22.6140 -47.0570 128° Southeast 325 374 23,000  Level FlightAware
07:28AM -22.6100 -46.9910 86° East 348 400 23,000  Level FlightAware
07:28AM -22.5920 -46.9700 47° Northeast 356 410 23,000  Level FlightAware
07:29AM -22.5760 -46.9600 30° Northeast 356 410 23,000  Level FlightAware
07:29AM -22.5520 -46.9560 North 357 411 23,000  Level FlightAware
07:29AM -22.5040 -46.9710 344° North 352 405 23,000  Level FlightAware
07:30AM -22.4510 -46.9930 339° North 351 404 23,000  Level FlightAware
07:31AM -22.3870 -47.0270 334° Northwest 342 394 23,000  Level FlightAware
07:31AM -22.3730 -47.0490 305° West 335 386 23,000  Level FlightAware
07:31AM -22.3670 -47.0730 285° West 323 372 23,000  Level FlightAware
07:32AM -22.3770 -47.1160 256° West 306 352 23,000  Level FlightAware
07:32AM -22.3860 -47.1290 233° Southwest 306 352 23,000  Level FlightAware
07:32AM -22.4040 -47.1430 216° Southwest 295 339 23,000  Level FlightAware
07:32AM -22.4170 -47.1480 200° South 301 346 23,000  Level FlightAware
07:33AM -22.4630 -47.1430 174° South 308 354 23,000  Level FlightAware
07:33AM -22.5210 -47.1220 162° South 308 354 23,000  Level FlightAware
07:34AM -22.5760 -47.0990 159° South 309 356 23,000  Level FlightAware
07:34AM -22.5960 -47.0850 147° Southeast 315 362 23,000  Level FlightAware
07:36AM -22.6050 -46.9830 95° East 352 405 23,000  Level FlightAware
07:36AM -22.5830 -46.9640 39° Northeast 357 411 23,000  Level FlightAware
07:36AM -22.5640 -46.9570 19° North 357 411 23,000  Level FlightAware
07:36AM -22.5400 -46.9570 360° North 355 409 23,000  Level FlightAware
07:37AM -22.4780 -46.9810 340° North 352 405 23,000  Level FlightAware
07:38AM -22.4190 -47.0070 338° Northwest 345 397 23,000  Level FlightAware
07:38AM -22.3800 -47.0350 326° Northwest 334 384 23,000  Level FlightAware
07:39AM -22.3670 -47.0820 287° West 322 371 23,000  Level FlightAware
07:39AM -22.3690 -47.0990 263° West 315 362 23,000  Level FlightAware
07:39AM -22.3780 -47.1190 244° Southwest 310 357 23,000  Level FlightAware
07:39AM -22.3930 -47.1360 226° Southwest 299 344 23,000  Level FlightAware
07:40AM -22.4260 -47.1500 201° Southwest 294 338 23,000  Level FlightAware
07:40AM -22.4640 -47.1420 169° South 309 356 23,000  Level FlightAware
07:41AM -22.5250 -47.1200 162° South 308 354 23,000  Level FlightAware
07:42AM -22.5810 -47.0970 159° South 310 357 23,000  Level FlightAware
07:42AM -22.5980 -47.0830 143° Southeast 316 364 23,000  Level FlightAware
07:42AM -22.6110 -47.0630 125° Southeast 323 372 23,000  Level FlightAware
07:43AM -22.6190 -47.0220 102° East 338 389 23,000  Level FlightAware
07:43AM -22.6140 -47.0010 76° East 346 398 23,000  Level FlightAware
07:43AM -22.6000 -46.9770 58° Northeast 353 406 23,000  Level FlightAware
07:43AM -22.5850 -46.9640 39° Northeast 356 410 23,000  Level FlightAware
07:43AM -22.5650 -46.9570 18° North 357 411 23,000  Level FlightAware
07:44AM -22.5350 -46.9580 358° North 354 407 23,000  Level FlightAware
07:44AM -22.4760 -46.9820 339° North 351 404 23,000  Level FlightAware
07:45AM -22.4220 -47.0050 339° North 352 405 23,000  Level FlightAware
07:46AM -22.3780 -47.0380 325° Northwest 337 388 23,000  Level FlightAware
07:46AM -22.3670 -47.0720 289° West 327 376 23,000  Level FlightAware
07:46AM -22.3730 -47.1090 260° West 313 360 23,000  Level FlightAware
07:47AM -22.3840 -47.1270 237° Southwest 302 348 23,000  Level FlightAware
07:47AM -22.4020 -47.1410 216° Southwest 293 337 23,000  Level FlightAware
07:48AM -22.4900 -47.1330 175° South 293 337 23,000  Level FlightAware
07:49AM -22.5430 -47.1130 161° South 293 337 23,000  Level FlightAware
07:49AM -22.5950 -47.0850 154° Southeast 301 346 23,000  Level FlightAware
07:50AM -22.6160 -47.0280 112° Southeast 324 373 23,000  Level FlightAware
07:50AM -22.6100 -47.0040 75° East 334 384 23,000  Level FlightAware
07:50AM -22.5990 -46.9860 57° Northeast 340 391 23,000  Level FlightAware
07:51AM -22.5800 -46.9710 36° Northeast 344 396 23,000  Level FlightAware
07:51AM -22.5630 -46.9660 15° North 343 395 23,000  Level FlightAware
07:51AM -22.5200 -46.9750 349° North 337 388 23,000  Level FlightAware
07:52AM -22.4540 -47.0030 339° North 337 388 23,000  Level FlightAware
07:53AM -22.3970 -47.0340 333° Northwest 328 377 23,000  Level FlightAware
07:53AM -22.3800 -47.0710 296° West 313 360 23,000  Level FlightAware
07:54AM -22.3970 -47.1290 252° West 292 336 23,000  Level FlightAware
07:54AM -22.4320 -47.1470 205° Southwest 289 333 23,000  Level FlightAware
07:55AM -22.4870 -47.1340 168° South 293 337 23,000  Level FlightAware
07:56AM -22.5400 -47.1140 161° South 295 339 23,000 -240 Level FlightAware
07:57AM -22.5920 -47.0930 160° South 293 337 22,700 -900 Descending FlightAware
07:57AM -22.6500 -47.0680 158° South 290 334 21,700 -1,260 Descending FlightAware
07:58AM -22.7020 -47.0460 159° South 286 329 20,900 -1,200 Descending FlightAware
07:59AM -22.7560 -47.0230 159° South 282 325 20,000 -1,260 Descending FlightAware
07:59AM -22.8020 -47.0040 159° South 278 320 19,200 -1,800 Descending FlightAware
08:00AM -22.8740 -46.9730 158° South 269 310 17,000 -2,520 Descending FlightAware
08:01AM -22.9300 -46.9500 159° South 275 316 14,700 -2,820 Descending FlightAware
08:02AM -22.9770 -46.9300 159° South 267 307 13,000 -1,980 Descending FlightAware
08:03AM -23.0280 -46.9090 159° South 269 310 12,000 -1,380 Descending FlightAware
08:03AM -23.0720 -46.8840 152° Southeast 267 307 11,100 -1,260 Descending FlightAware
08:04AM -23.1170 -46.8560 150° Southeast 260 299 10,300 -1,080 Descending FlightAware
08:04AM -23.1460 -46.8370 149° Southeast 248 285 9,900 -960 Descending FlightAware
08:05AM -23.1730 -46.8190 148° Southeast 237 273 9,400 -1,020 Descending FlightAware
08:05AM -23.1980 -46.8030 150° Southeast 226 260 9,000 -780 Descending FlightAware
08:06AM -23.2230 -46.7870 150° Southeast 212 244 8,700 -780 Descending FlightAware
08:06AM -23.2470 -46.7720 150° Southeast 204 235 8,300 -840 Descending FlightAware
08:07AM -23.2720 -46.7570 151° Southeast 204 235 7,900 -840 Descending FlightAware
08:07AM -23.2920 -46.7450 151° Southeast 205 236 7,600 -720 Descending FlightAware
08:08AM -23.3140 -46.7320 152° Southeast 204 235 7,300 -660 Descending FlightAware
08:08AM -23.3300 -46.7230 153° Southeast 204 235 7,100 -840 Descending FlightAware
08:08AM -23.3530 -46.7100 153° Southeast 196 226 6,700 -780 Descending FlightAware
08:09AM -23.3740 -46.6980 152° Southeast 192 221 6,400 -900 Descending FlightAware
08:09AM -23.3970 -46.6860 154° Southeast 177 204 5,900 -960 Descending FlightAware
08:10AM -23.4180 -46.6740 152° Southeast 178 205 5,500 -960 Descending FlightAware
08:10AM -23.4430 -46.6550 145° Southeast 176 203 4,900 -720 Descending FlightAware
08:11AM -23.4620 -46.6400 144° Southeast 168 193 4,700 -420 Descending FlightAware
08:11AM -23.4690 -46.6300 127° Southeast 153 176 4,600 -540 Descending FlightAware
08:12AM -23.4720 -46.6230 115° Southeast 152 175 4,400 -480 Descending FlightAware
08:12AM -23.4730 -46.6180 102° East 151 174 4,300 -780 Descending FlightAware
08:12AM -23.4640 -46.5800 76° East 156 180 3,800 -840 Descending FlightAware
08:13AM -23.4610 -46.5680 75° East 158 182 3,700 -720 Descending FlightAware
08:13AM -23.4550 -46.5480 72° East 138 159 3,300 -840 Descending FlightAware
08:13AM -23.4510 -46.5320 75° East 139 160 3,000 -720 Descending FlightAware
08:14AM -23.4460 -46.5130 74° East 142 163 2,700 -780 Descending FlightAware
08:15AM -23.4380 -46.4830 74° East 144 166 2,100 -900 Descending FlightAware
08:16AM -23.4290 -46.4680 155° Southeast 16 18 -1,200 Descending FlightAware
08:17AM -23.4321 -46.4695 155° Southeast  Level Estimated
08:17AM -23.4290 -46.4690 270° West 12 14  Level FlightAware